Terminal Aerodrome Forecast
Issued by NWS Spokane, WA

Home | Current Version | Previous Version | Text Only | Print | Product List | Glossary On
Versions: 1 2 3 4 5 6 7 8 9 10 11 12 13 14 15
000
FTUS46 KOTX 250137 AAA
TAFGEG
TAF AMD
KGEG 250137Z 2502/2524 02010KT P6SM FEW100 SCT120
     FM250400 04005KT P6SM SCT120
     FM251900 02007KT P6SM FEW070=

USA.gov is the U.S. government's official web portal to all federal, state and local government web resources and services.